sensor_id;sensor_type;location;lat;lon;timestamp;pressure;altitude;pressure_sealevel;temperature;humidity
56270;BME280;42176;43.240;27.880;2024-03-08T00:00:44;100502.97;;;4.29;100.00
56270;BME280;42176;43.240;27.880;2024-03-08T00:02:45;100503.50;;;3.99;100.00
56270;BME280;42176;43.240;27.880;2024-03-08T00:04:47;100499.16;;;3.99;100.00
56270;BME280;42176;43.240;27.880;2024-03-08T00:06:47;100497.63;;;4.23;100.00
56270;BME280;42176;43.240;27.880;2024-03-08T00:08:48;100491.75;;;4.47;100.00
56270;BME280;42176;43.240;27.880;2024-03-08T00:10:48;100485.09;;;4.96;100.00
56270;BME280;42176;43.240;27.880;2024-03-08T00:12:49;100457.63;;;4.47;100.00
56270;BME280;42176;43.240;27.880;2024-03-08T00:14:52;100469.53;;;4.09;100.00
56270;BME280;42176;43.240;27.880;2024-03-08T00:16:53;100462.34;;;3.93;100.00
56270;BME280;42176;43.240;27.880;2024-03-08T00:18:54;100454.56;;;4.01;100.00
56270;BME280;42176;43.240;27.880;2024-03-08T00:20:55;100449.63;;;4.33;100.00
56270;BME280;42176;43.240;27.880;2024-03-08T00:22:56;100455.97;;;4.60;100.00
56270;BME280;42176;43.240;27.880;2024-03-08T00:24:58;100445.66;;;4.86;100.00
56270;BME280;42176;43.240;27.880;2024-03-08T00:26:58;100442.63;;;4.32;100.00
56270;BME280;42176;43.240;27.880;2024-03-08T00:28:59;100437.91;;;3.94;100.00
56270;BME280;42176;43.240;27.880;2024-03-08T00:31:00;100435.50;;;4.16;100.00
56270;BME280;42176;43.240;27.880;2024-03-08T00:33:00;100451.44;;;4.40;100.00
56270;BME280;42176;43.240;27.880;2024-03-08T00:35:02;100445.50;;;4.63;100.00
56270;BME280;42176;43.240;27.880;2024-03-08T00:37:03;100449.13;;;4.81;100.00
56270;BME280;42176;43.240;27.880;2024-03-08T00:39:04;100425.56;;;4.98;100.00
56270;BME280;42176;43.240;27.880;2024-03-08T00:41:08;100437.94;;;5.13;100.00
56270;BME280;42176;43.240;27.880;2024-03-08T00:43:08;100429.19;;;5.22;100.00
56270;BME280;42176;43.240;27.880;2024-03-08T00:45:10;100426.53;;;5.11;100.00
56270;BME280;42176;43.240;27.880;2024-03-08T00:47:10;100419.03;;;4.35;100.00
56270;BME280;42176;43.240;27.880;2024-03-08T00:49:11;100426.47;;;3.86;100.00
56270;BME280;42176;43.240;27.880;2024-03-08T00:51:12;100439.53;;;3.83;100.00
56270;BME280;42176;43.240;27.880;2024-03-08T00:53:13;100422.31;;;4.09;100.00
56270;BME280;42176;43.240;27.880;2024-03-08T00:55:14;100434.78;;;4.35;100.00
56270;BME280;42176;43.240;27.880;2024-03-08T00:57:14;100431.59;;;4.77;100.00
56270;BME280;42176;43.240;27.880;2024-03-08T00:59:15;100427.53;;;4.09;100.00
56270;BME280;42176;43.240;27.880;2024-03-08T01:01:15;100430.66;;;3.68;100.00
56270;BME280;42176;43.240;27.880;2024-03-08T01:03:16;100443.09;;;3.88;100.00
56270;BME280;42176;43.240;27.880;2024-03-08T01:05:17;100438.06;;;4.13;100.00
56270;BME280;42176;43.240;27.880;2024-03-08T01:07:18;100438.28;;;4.34;100.00
56270;BME280;42176;43.240;27.880;2024-03-08T01:09:18;100427.25;;;4.86;100.00
56270;BME280;42176;43.240;27.880;2024-03-08T01:11:20;100418.09;;;4.27;100.00
56270;BME280;42176;43.240;27.880;2024-03-08T01:13:21;100425.31;;;3.62;100.00
56270;BME280;42176;43.240;27.880;2024-03-08T01:15:21;100413.16;;;3.67;100.00
56270;BME280;42176;43.240;27.880;2024-03-08T01:17:23;100427.41;;;3.94;100.00
56270;BME280;42176;43.240;27.880;2024-03-08T01:19:24;100426.75;;;4.17;100.00
56270;BME280;42176;43.240;27.880;2024-03-08T01:21:25;100422.66;;;4.53;100.00
56270;BME280;42176;43.240;27.880;2024-03-08T01:23:25;100434.59;;;4.14;100.00
56270;BME280;42176;43.240;27.880;2024-03-08T01:25:26;100417.50;;;3.63;100.00
56270;BME280;42176;43.240;27.880;2024-03-08T01:27:26;100423.50;;;3.55;100.00
56270;BME280;42176;43.240;27.880;2024-03-08T01:29:27;100437.00;;;3.89;100.00
56270;BME280;42176;43.240;27.880;2024-03-08T01:31:30;100413.53;;;4.04;100.00
56270;BME280;42176;43.240;27.880;2024-03-08T01:33:31;100426.91;;;4.35;100.00
56270;BME280;42176;43.240;27.880;2024-03-08T01:35:32;100434.91;;;4.54;100.00
56270;BME280;42176;43.240;27.880;2024-03-08T01:37:32;100434.13;;;4.66;100.00
56270;BME280;42176;43.240;27.880;2024-03-08T01:39:33;100429.88;;;4.82;100.00
56270;BME280;42176;43.240;27.880;2024-03-08T01:41:34;100449.28;;;5.09;100.00
56270;BME280;42176;43.240;27.880;2024-03-08T01:43:35;100434.91;;;4.54;100.00
56270;BME280;42176;43.240;27.880;2024-03-08T01:45:36;100438.72;;;3.87;100.00
56270;BME280;42176;43.240;27.880;2024-03-08T01:47:37;100436.69;;;2.92;100.00
56270;BME280;42176;43.240;27.880;2024-03-08T01:49:38;100451.31;;;3.42;100.00
56270;BME280;42176;43.240;27.880;2024-03-08T01:51:40;100434.16;;;3.70;100.00
56270;BME280;42176;43.240;27.880;2024-03-08T01:53:45;100435.56;;;4.25;100.00
56270;BME280;42176;43.240;27.880;2024-03-08T01:55:49;100409.72;;;3.74;100.00
56270;BME280;42176;43.240;27.880;2024-03-08T01:57:51;100433.94;;;3.52;100.00
56270;BME280;42176;43.240;27.880;2024-03-08T01:59:52;100451.63;;;3.68;100.00
56270;BME280;42176;43.240;27.880;2024-03-08T02:02:00;100425.69;;;3.96;100.00
56270;BME280;42176;43.240;27.880;2024-03-08T02:04:01;100423.44;;;4.38;100.00
56270;BME280;42176;43.240;27.880;2024-03-08T02:06:03;100437.00;;;3.90;100.00
56270;BME280;42176;43.240;27.880;2024-03-08T02:08:06;100438.81;;;3.20;100.00
56270;BME280;42176;43.240;27.880;2024-03-08T02:10:14;100441.50;;;3.25;100.00
56270;BME280;42176;43.240;27.880;2024-03-08T02:12:14;100427.03;;;3.60;100.00
56270;BME280;42176;43.240;27.880;2024-03-08T02:14:15;100437.13;;;4.06;100.00
56270;BME280;42176;43.240;27.880;2024-03-08T02:16:22;100446.72;;;4.02;100.00
56270;BME280;42176;43.240;27.880;2024-03-08T02:18:23;100438.19;;;3.40;100.00
56270;BME280;42176;43.240;27.880;2024-03-08T02:20:24;100427.53;;;3.28;100.00
56270;BME280;42176;43.240;27.880;2024-03-08T02:22:24;100437.56;;;3.63;100.00
56270;BME280;42176;43.240;27.880;2024-03-08T02:24:25;100429.97;;;3.88;100.00
56270;BME280;42176;43.240;27.880;2024-03-08T02:26:26;100421.44;;;4.10;100.00
56270;BME280;42176;43.240;27.880;2024-03-08T02:28:27;100434.75;;;4.32;100.00
56270;BME280;42176;43.240;27.880;2024-03-08T02:30:29;100424.19;;;4.26;100.00
56270;BME280;42176;43.240;27.880;2024-03-08T02:32:30;100429.56;;;3.52;100.00
56270;BME280;42176;43.240;27.880;2024-03-08T02:34:32;100430.00;;;3.15;100.00
56270;BME280;42176;43.240;27.880;2024-03-08T02:36:33;100428.63;;;3.42;100.00
56270;BME280;42176;43.240;27.880;2024-03-08T02:38:35;100435.94;;;3.71;100.00
56270;BME280;42176;43.240;27.880;2024-03-08T02:40:35;100435.56;;;4.25;100.00
56270;BME280;42176;43.240;27.880;2024-03-08T02:42:36;100433.38;;;3.79;100.00
56270;BME280;42176;43.240;27.880;2024-03-08T02:44:36;100424.06;;;3.29;100.00
56270;BME280;42176;43.240;27.880;2024-03-08T02:46:37;100410.34;;;2.82;100.00
56270;BME280;42176;43.240;27.880;2024-03-08T02:48:38;100439.00;;;3.34;100.00
56270;BME280;42176;43.240;27.880;2024-03-08T02:50:40;100442.81;;;3.63;100.00
56270;BME280;42176;43.240;27.880;2024-03-08T02:52:40;100447.59;;;4.01;100.00
56270;BME280;42176;43.240;27.880;2024-03-08T02:54:42;100446.97;;;3.45;100.00
56270;BME280;42176;43.240;27.880;2024-03-08T02:56:43;100449.50;;;2.71;100.00
56270;BME280;42176;43.240;27.880;2024-03-08T02:58:44;100447.47;;;3.15;100.00
56270;BME280;42176;43.240;27.880;2024-03-08T03:00:48;100449.69;;;3.52;100.00
56270;BME280;42176;43.240;27.880;2024-03-08T03:02:50;100455.22;;;3.79;100.00
56270;BME280;42176;43.240;27.880;2024-03-08T03:04:54;100451.97;;;4.05;100.00
56270;BME280;42176;43.240;27.880;2024-03-08T03:06:56;100444.38;;;3.47;100.00
56270;BME280;42176;43.240;27.880;2024-03-08T03:08:57;100451.19;;;2.69;100.00
56270;BME280;42176;43.240;27.880;2024-03-08T03:10:58;100450.03;;;3.10;100.00
56270;BME280;42176;43.240;27.880;2024-03-08T03:12:58;100458.34;;;3.47;100.00
56270;BME280;42176;43.240;27.880;2024-03-08T03:14:59;100456.38;;;4.03;100.00
56270;BME280;42176;43.240;27.880;2024-03-08T03:17:00;100449.91;;;3.70;100.00
56270;BME280;42176;43.240;27.880;2024-03-08T03:19:00;100449.38;;;3.27;100.00
56270;BME280;42176;43.240;27.880;2024-03-08T03:21:03;100445.66;;;3.09;100.00
56270;BME280;42176;43.240;27.880;2024-03-08T03:23:08;100439.06;;;3.39;100.00
56270;BME280;42176;43.240;27.880;2024-03-08T03:25:09;100465.59;;;3.67;100.00
56270;BME280;42176;43.240;27.880;2024-03-08T03:27:09;100457.06;;;3.87;100.00
56270;BME280;42176;43.240;27.880;2024-03-08T03:29:13;100449.34;;;4.02;100.00
56270;BME280;42176;43.240;27.880;2024-03-08T03:31:14;100451.22;;;4.17;100.00
56270;BME280;42176;43.240;27.880;2024-03-08T03:33:15;100443.50;;;4.31;100.00
56270;BME280;42176;43.240;27.880;2024-03-08T03:35:17;100447.00;;;4.33;100.00
56270;BME280;42176;43.240;27.880;2024-03-08T03:37:19;100439.38;;;3.67;100.00
56270;BME280;42176;43.240;27.880;2024-03-08T03:39:19;100431.34;;;2.85;100.00
56270;BME280;42176;43.240;27.880;2024-03-08T03:41:22;100439.31;;;2.92;100.00
56270;BME280;42176;43.240;27.880;2024-03-08T03:43:23;100449.34;;;3.24;100.00
56270;BME280;42176;43.240;27.880;2024-03-08T03:45:24;100455.00;;;3.61;100.00
56270;BME280;42176;43.240;27.880;2024-03-08T03:47:25;100450.88;;;3.81;100.00
56270;BME280;42176;43.240;27.880;2024-03-08T03:49:27;100447.78;;;4.21;100.00
56270;BME280;42176;43.240;27.880;2024-03-08T03:51:29;100441.19;;;3.74;100.00
56270;BME280;42176;43.240;27.880;2024-03-08T03:53:30;100443.97;;;3.14;100.00
56270;BME280;42176;43.240;27.880;2024-03-08T03:55:30;100446.31;;;2.93;100.00
56270;BME280;42176;43.240;27.880;2024-03-08T03:57:31;100445.06;;;3.30;100.00
56270;BME280;42176;43.240;27.880;2024-03-08T03:59:32;100450.97;;;3.91;100.00
56270;BME280;42176;43.240;27.880;2024-03-08T04:01:33;100433.53;;;3.94;100.00
56270;BME280;42176;43.240;27.880;2024-03-08T04:03:34;100448.47;;;3.25;100.00
56270;BME280;42176;43.240;27.880;2024-03-08T04:05:34;100454.28;;;3.02;100.00
56270;BME280;42176;43.240;27.880;2024-03-08T04:07:35;100447.78;;;3.38;100.00
56270;BME280;42176;43.240;27.880;2024-03-08T04:09:36;100462.97;;;3.67;100.00
56270;BME280;42176;43.240;27.880;2024-03-08T04:11:37;100457.16;;;3.96;100.00
56270;BME280;42176;43.240;27.880;2024-03-08T04:13:37;100451.16;;;4.09;100.00
56270;BME280;42176;43.240;27.880;2024-03-08T04:15:38;100449.59;;;3.45;100.00
56270;BME280;42176;43.240;27.880;2024-03-08T04:17:38;100453.66;;;2.58;100.00
56270;BME280;42176;43.240;27.880;2024-03-08T04:19:39;100442.94;;;3.01;100.00
56270;BME280;42176;43.240;27.880;2024-03-08T04:21:40;100454.72;;;3.36;100.00
56270;BME280;42176;43.240;27.880;2024-03-08T04:23:40;100398.75;;;3.31;100.00
56270;BME280;42176;43.240;27.880;2024-03-08T04:25:41;100449.19;;;3.87;100.00
56270;BME280;42176;43.240;27.880;2024-03-08T04:27:42;100458.13;;;4.06;100.00
56270;BME280;42176;43.240;27.880;2024-03-08T04:29:43;100450.63;;;4.48;100.00
56270;BME280;42176;43.240;27.880;2024-03-08T04:31:43;100460.69;;;3.98;100.00
56270;BME280;42176;43.240;27.880;2024-03-08T04:33:44;100451.22;;;3.34;100.00
56270;BME280;42176;43.240;27.880;2024-03-08T04:35:45;100438.56;;;2.43;100.00
56270;BME280;42176;43.240;27.880;2024-03-08T04:37:46;100442.94;;;3.01;100.00
56270;BME280;42176;43.240;27.880;2024-03-08T04:39:47;100458.22;;;3.35;100.00
56270;BME280;42176;43.240;27.880;2024-03-08T04:41:47;100462.97;;;3.69;100.00
56270;BME280;42176;43.240;27.880;2024-03-08T04:43:48;100465.75;;;3.83;100.00
56270;BME280;42176;43.240;27.880;2024-03-08T04:45:48;100454.59;;;3.24;100.00
56270;BME280;42176;43.240;27.880;2024-03-08T04:47:49;100459.78;;;2.61;100.00
56270;BME280;42176;43.240;27.880;2024-03-08T04:49:49;100452.69;;;3.13;100.00
56270;BME280;42176;43.240;27.880;2024-03-08T04:51:50;100457.41;;;3.39;100.00
56270;BME280;42176;43.240;27.880;2024-03-08T04:53:51;100461.16;;;3.63;100.00
56270;BME280;42176;43.240;27.880;2024-03-08T04:55:51;100465.91;;;3.98;100.00
56270;BME280;42176;43.240;27.880;2024-03-08T04:57:52;100465.06;;;4.01;100.00
56270;BME280;42176;43.240;27.880;2024-03-08T04:59:53;100440.63;;;3.25;100.00
56270;BME280;42176;43.240;27.880;2024-03-08T05:01:53;100469.25;;;2.52;100.00
56270;BME280;42176;43.240;27.880;2024-03-08T05:03:54;100474.88;;;2.79;100.00
56270;BME280;42176;43.240;27.880;2024-03-08T05:05:55;100469.34;;;3.18;100.00
56270;BME280;42176;43.240;27.880;2024-03-08T05:07:56;100484.56;;;3.47;100.00
56270;BME280;42176;43.240;27.880;2024-03-08T05:09:57;100483.28;;;3.87;100.00
56270;BME280;42176;43.240;27.880;2024-03-08T05:11:57;100466.06;;;3.35;100.00
56270;BME280;42176;43.240;27.880;2024-03-08T05:14:00;100488.31;;;3.02;100.00
56270;BME280;42176;43.240;27.880;2024-03-08T05:16:00;100478.13;;;3.22;100.00
56270;BME280;42176;43.240;27.880;2024-03-08T05:18:01;100491.38;;;3.33;100.00
56270;BME280;42176;43.240;27.880;2024-03-08T05:20:02;100481.09;;;3.48;100.00
56270;BME280;42176;43.240;27.880;2024-03-08T05:22:02;100489.09;;;3.58;100.00
56270;BME280;42176;43.240;27.880;2024-03-08T05:24:03;100488.19;;;3.56;100.00
56270;BME280;42176;43.240;27.880;2024-03-08T05:26:05;100489.94;;;3.57;100.00
56270;BME280;42176;43.240;27.880;2024-03-08T05:28:05;100486.41;;;3.55;100.00
56270;BME280;42176;43.240;27.880;2024-03-08T05:30:06;100498.53;;;3.46;100.00
56270;BME280;42176;43.240;27.880;2024-03-08T05:32:07;100490.81;;;3.56;100.00
56270;BME280;42176;43.240;27.880;2024-03-08T05:34:07;100492.84;;;3.81;100.00
56270;BME280;42176;43.240;27.880;2024-03-08T05:36:09;100499.53;;;4.38;100.00
56270;BME280;42176;43.240;27.880;2024-03-08T05:38:11;100506.16;;;4.00;100.00
56270;BME280;42176;43.240;27.880;2024-03-08T05:40:13;100494.81;;;3.29;100.00
56270;BME280;42176;43.240;27.880;2024-03-08T05:42:13;100494.00;;;2.71;100.00
56270;BME280;42176;43.240;27.880;2024-03-08T05:44:14;100497.31;;;3.18;100.00
56270;BME280;42176;43.240;27.880;2024-03-08T05:46:17;100510.81;;;3.50;100.00
56270;BME280;42176;43.240;27.880;2024-03-08T05:48:18;100515.81;;;4.01;100.00
56270;BME280;42176;43.240;27.880;2024-03-08T05:50:19;100522.03;;;4.13;100.00
56270;BME280;42176;43.240;27.880;2024-03-08T05:52:19;100528.22;;;3.45;100.00
56270;BME280;42176;43.240;27.880;2024-03-08T05:54:20;100522.72;;;3.24;100.00
56270;BME280;42176;43.240;27.880;2024-03-08T05:56:24;100512.53;;;3.48;100.00
56270;BME280;42176;43.240;27.880;2024-03-08T05:58:25;100523.38;;;3.76;100.00
56270;BME280;42176;43.240;27.880;2024-03-08T06:00:26;100518.38;;;3.98;100.00
56270;BME280;42176;43.240;27.880;2024-03-08T06:02:27;100527.41;;;4.25;100.00
56270;BME280;42176;43.240;27.880;2024-03-08T06:04:27;100517.03;;;4.34;100.00
56270;BME280;42176;43.240;27.880;2024-03-08T06:06:29;100516.34;;;3.72;100.00
56270;BME280;42176;43.240;27.880;2024-03-08T06:08:30;100527.31;;;2.80;100.00
56270;BME280;42176;43.240;27.880;2024-03-08T06:10:31;100531.03;;;2.98;100.00
56270;BME280;42176;43.240;27.880;2024-03-08T06:12:32;100526.47;;;3.44;100.00
56270;BME280;42176;43.240;27.880;2024-03-08T06:14:37;100533.75;;;3.69;100.00
56270;BME280;42176;43.240;27.880;2024-03-08T06:16:38;100540.44;;;4.17;100.00
56270;BME280;42176;43.240;27.880;2024-03-08T06:18:38;100541.63;;;3.69;100.00
56270;BME280;42176;43.240;27.880;2024-03-08T06:20:42;100532.50;;;3.39;100.00
56270;BME280;42176;43.240;27.880;2024-03-08T06:22:44;100549.03;;;3.33;100.00
56270;BME280;42176;43.240;27.880;2024-03-08T06:24:45;100542.81;;;3.28;100.00
56270;BME280;42176;43.240;27.880;2024-03-08T06:26:45;100554.72;;;3.05;100.00
56270;BME280;42176;43.240;27.880;2024-03-08T06:28:46;100546.00;;;3.07;100.00
56270;BME280;42176;43.240;27.880;2024-03-08T06:30:46;100557.69;;;3.26;100.00
56270;BME280;42176;43.240;27.880;2024-03-08T06:32:47;100550.84;;;3.37;100.00
56270;BME280;42176;43.240;27.880;2024-03-08T06:34:47;100558.84;;;3.48;100.00
56270;BME280;42176;43.240;27.880;2024-03-08T06:36:48;100549.38;;;3.58;100.00
56270;BME280;42176;43.240;27.880;2024-03-08T06:38:49;100547.78;;;3.69;100.00
56270;BME280;42176;43.240;27.880;2024-03-08T06:40:50;100555.09;;;3.98;100.00
56270;BME280;42176;43.240;27.880;2024-03-08T06:42:51;100547.56;;;4.28;100.00
56270;BME280;42176;43.240;27.880;2024-03-08T06:44:52;100539.81;;;3.63;100.00
56270;BME280;42176;43.240;27.880;2024-03-08T06:46:55;100543.44;;;3.10;100.00
56270;BME280;42176;43.240;27.880;2024-03-08T06:48:56;100545.31;;;3.18;100.00
56270;BME280;42176;43.240;27.880;2024-03-08T06:50:56;100545.84;;;3.56;100.00
56270;BME280;42176;43.240;27.880;2024-03-08T06:52:57;100554.47;;;4.21;100.00
56270;BME280;42176;43.240;27.880;2024-03-08T06:54:59;100557.56;;;3.83;100.00
56270;BME280;42176;43.240;27.880;2024-03-08T06:57:03;100552.91;;;3.63;100.00
56270;BME280;42176;43.240;27.880;2024-03-08T06:59:03;100554.88;;;3.79;100.00
56270;BME280;42176;43.240;27.880;2024-03-08T07:01:04;100560.16;;;3.83;100.00
56270;BME280;42176;43.240;27.880;2024-03-08T07:03:08;100556.84;;;3.96;100.00
56270;BME280;42176;43.240;27.880;2024-03-08T07:05:12;100551.69;;;4.05;100.00
56270;BME280;42176;43.240;27.880;2024-03-08T07:07:13;100555.16;;;4.03;100.00
56270;BME280;42176;43.240;27.880;2024-03-08T07:09:13;100547.41;;;4.12;100.00
56270;BME280;42176;43.240;27.880;2024-03-08T07:11:17;100561.38;;;4.11;100.00
56270;BME280;42176;43.240;27.880;2024-03-08T07:13:18;100545.69;;;4.17;100.00
56270;BME280;42176;43.240;27.880;2024-03-08T07:15:19;100547.53;;;4.26;100.00
56270;BME280;42176;43.240;27.880;2024-03-08T07:17:20;100546.59;;;4.18;100.00
56270;BME280;42176;43.240;27.880;2024-03-08T07:19:20;100539.78;;;4.38;100.00
56270;BME280;42176;43.240;27.880;2024-03-08T07:21:21;100543.75;;;4.88;100.00
56270;BME280;42176;43.240;27.880;2024-03-08T07:23:22;100547.47;;;4.18;100.00
56270;BME280;42176;43.240;27.880;2024-03-08T07:26:01;100554.84;;;3.76;100.00
56270;BME280;42176;43.240;27.880;2024-03-08T07:28:01;100552.41;;;3.92;100.00
56270;BME280;42176;43.240;27.880;2024-03-08T07:30:05;100565.69;;;4.04;100.00
56270;BME280;42176;43.240;27.880;2024-03-08T07:32:06;100551.81;;;4.15;100.00
56270;BME280;42176;43.240;27.880;2024-03-08T07:34:21;100544.88;;;4.23;100.00
56270;BME280;42176;43.240;27.880;2024-03-08T07:36:22;100558.72;;;4.08;100.00
56270;BME280;42176;43.240;27.880;2024-03-08T07:38:25;100560.63;;;4.20;100.00
56270;BME280;42176;43.240;27.880;2024-03-08T07:40:26;100555.59;;;4.45;100.00
56270;BME280;42176;43.240;27.880;2024-03-08T07:42:27;100554.97;;;4.70;100.00
56270;BME280;42176;43.240;27.880;2024-03-08T07:44:29;100552.56;;;4.95;100.00
56270;BME280;42176;43.240;27.880;2024-03-08T07:46:31;100547.41;;;5.14;100.00
56270;BME280;42176;43.240;27.880;2024-03-08T07:48:31;100558.94;;;5.33;100.00
56270;BME280;42176;43.240;27.880;2024-03-08T07:50:32;100559.91;;;5.49;100.00
56270;BME280;42176;43.240;27.880;2024-03-08T07:52:33;100546.81;;;5.60;100.00
56270;BME280;42176;43.240;27.880;2024-03-08T07:54:34;100538.13;;;5.81;100.00
56270;BME280;42176;43.240;27.880;2024-03-08T07:56:36;100548.06;;;4.85;100.00
56270;BME280;42176;43.240;27.880;2024-03-08T07:58:36;100544.75;;;4.10;100.00
56270;BME280;42176;43.240;27.880;2024-03-08T08:00:37;100549.91;;;4.01;100.00
56270;BME280;42176;43.240;27.880;2024-03-08T08:02:37;100540.44;;;4.17;100.00
56270;BME280;42176;43.240;27.880;2024-03-08T08:04:38;100543.44;;;4.56;100.00
56270;BME280;42176;43.240;27.880;2024-03-08T08:06:39;100550.03;;;5.12;100.00
56270;BME280;42176;43.240;27.880;2024-03-08T08:08:42;100544.59;;;4.84;100.00
56270;BME280;42176;43.240;27.880;2024-03-08T08:10:43;100550.13;;;4.23;100.00
56270;BME280;42176;43.240;27.880;2024-03-08T08:12:44;100556.97;;;4.07;100.00
56270;BME280;42176;43.240;27.880;2024-03-08T08:14:46;100550.97;;;4.19;100.00
56270;BME280;42176;43.240;27.880;2024-03-08T08:16:47;100552.13;;;4.47;100.00
56270;BME280;42176;43.240;27.880;2024-03-08T08:18:48;100541.78;;;4.67;100.00
56270;BME280;42176;43.240;27.880;2024-03-08T08:20:49;100556.00;;;4.91;100.00
56270;BME280;42176;43.240;27.880;2024-03-08T08:22:50;100543.97;;;5.20;100.00
56270;BME280;42176;43.240;27.880;2024-03-08T08:24:50;100546.72;;;5.40;100.00
56270;BME280;42176;43.240;27.880;2024-03-08T08:26:52;100547.97;;;4.72;100.00
56270;BME280;42176;43.240;27.880;2024-03-08T08:28:53;100552.81;;;4.31;100.00
56270;BME280;42176;43.240;27.880;2024-03-08T08:30:53;100555.31;;;4.17;100.00
56270;BME280;42176;43.240;27.880;2024-03-08T08:32:54;100545.91;;;4.37;100.00
56270;BME280;42176;43.240;27.880;2024-03-08T08:34:55;100554.91;;;4.64;100.00
56270;BME280;42176;43.240;27.880;2024-03-08T08:36:56;100557.81;;;4.95;100.00
56270;BME280;42176;43.240;27.880;2024-03-08T08:38:56;100553.50;;;5.07;100.00
56270;BME280;42176;43.240;27.880;2024-03-08T08:40:58;100551.78;;;5.10;100.00
56270;BME280;42176;43.240;27.880;2024-03-08T08:42:59;100545.75;;;5.25;100.00
56270;BME280;42176;43.240;27.880;2024-03-08T08:45:00;100557.41;;;5.74;100.00
56270;BME280;42176;43.240;27.880;2024-03-08T08:47:01;100549.41;;;5.52;100.00
56270;BME280;42176;43.240;27.880;2024-03-08T08:49:04;100544.53;;;4.83;100.00
56270;BME280;42176;43.240;27.880;2024-03-08T08:51:06;100552.22;;;4.58;100.00
56270;BME280;42176;43.240;27.880;2024-03-08T08:53:07;100554.78;;;4.52;100.00
56270;BME280;42176;43.240;27.880;2024-03-08T08:55:08;100561.28;;;4.91;100.00
56270;BME280;42176;43.240;27.880;2024-03-08T08:57:09;100558.03;;;5.32;100.00
56270;BME280;42176;43.240;27.880;2024-03-08T08:59:10;100546.00;;;5.78;100.00
56270;BME280;42176;43.240;27.880;2024-03-08T09:01:14;100566.81;;;5.28;100.00
56270;BME280;42176;43.240;27.880;2024-03-08T09:03:14;100564.69;;;4.84;100.00
56270;BME280;42176;43.240;27.880;2024-03-08T09:05:17;100572.25;;;4.47;100.00
56270;BME280;42176;43.240;27.880;2024-03-08T09:07:18;100567.41;;;4.93;100.00
56270;BME280;42176;43.240;27.880;2024-03-08T09:09:19;100559.16;;;5.76;100.00
56270;BME280;42176;43.240;27.880;2024-03-08T09:11:20;100558.91;;;5.28;100.00
56270;BME280;42176;43.240;27.880;2024-03-08T09:13:20;100554.06;;;4.65;100.00
56270;BME280;42176;43.240;27.880;2024-03-08T09:15:21;100564.59;;;4.71;100.00
56270;BME280;42176;43.240;27.880;2024-03-08T09:17:21;100571.97;;;5.13;100.00
56270;BME280;42176;43.240;27.880;2024-03-08T09:19:22;100559.91;;;5.49;100.00
56270;BME280;42176;43.240;27.880;2024-03-08T09:21:26;100561.78;;;5.72;100.00
56270;BME280;42176;43.240;27.880;2024-03-08T09:23:27;100581.16;;;5.95;100.00
56270;BME280;42176;43.240;27.880;2024-03-08T09:25:31;100575.09;;;6.09;100.00
56270;BME280;42176;43.240;27.880;2024-03-08T09:27:31;100566.38;;;6.18;100.00
56270;BME280;42176;43.240;27.880;2024-03-08T09:29:33;100559.41;;;6.37;100.00
56270;BME280;42176;43.240;27.880;2024-03-08T09:31:33;100562.03;;;6.40;100.00
56270;BME280;42176;43.240;27.880;2024-03-08T09:33:34;100560.31;;;6.61;100.00
56270;BME280;42176;43.240;27.880;2024-03-08T09:35:35;100563.56;;;5.79;100.00
56270;BME280;42176;43.240;27.880;2024-03-08T09:37:36;100578.59;;;4.70;100.00
56270;BME280;42176;43.240;27.880;2024-03-08T09:39:36;100559.03;;;4.37;100.00
56270;BME280;42176;43.240;27.880;2024-03-08T09:41:37;100566.38;;;4.72;100.00
56270;BME280;42176;43.240;27.880;2024-03-08T09:43:39;100565.94;;;5.29;100.00
56270;BME280;42176;43.240;27.880;2024-03-08T09:45:40;100562.50;;;5.46;100.00
56270;BME280;42176;43.240;27.880;2024-03-08T09:47:42;100580.50;;;4.87;100.00
56270;BME280;42176;43.240;27.880;2024-03-08T09:49:43;100569.00;;;4.71;100.00
56270;BME280;42176;43.240;27.880;2024-03-08T09:51:43;100569.22;;;4.97;100.00
56270;BME280;42176;43.240;27.880;2024-03-08T09:53:45;100540.13;;;4.76;100.00
56270;BME280;42176;43.240;27.880;2024-03-08T09:55:47;100569.44;;;5.30;100.00
56270;BME280;42176;43.240;27.880;2024-03-08T09:57:51;100569.66;;;5.73;100.00
56270;BME280;42176;43.240;27.880;2024-03-08T10:00:15;100554.97;;;6.17;100.00
56270;BME280;42176;43.240;27.880;2024-03-08T10:02:24;100565.56;;;6.58;100.00
56270;BME280;42176;43.240;27.880;2024-03-08T10:04:25;100563.72;;;6.07;100.00
56270;BME280;42176;43.240;27.880;2024-03-08T10:06:30;100560.56;;;5.17;100.00
56270;BME280;42176;43.240;27.880;2024-03-08T10:08:31;100543.69;;;4.81;100.00
56270;BME280;42176;43.240;27.880;2024-03-08T10:10:34;100556.25;;;5.22;100.00
56270;BME280;42176;43.240;27.880;2024-03-08T10:12:34;100535.41;;;5.62;100.00
56270;BME280;42176;43.240;27.880;2024-03-08T10:14:38;100559.28;;;6.01;100.00
56270;BME280;42176;43.240;27.880;2024-03-08T10:16:41;100542.69;;;6.25;100.00
56270;BME280;42176;43.240;27.880;2024-03-08T10:18:41;100545.38;;;6.46;100.00
56270;BME280;42176;43.240;27.880;2024-03-08T10:20:42;100543.63;;;6.62;100.00
56270;BME280;42176;43.240;27.880;2024-03-08T10:22:43;100546.25;;;6.71;100.00
56270;BME280;42176;43.240;27.880;2024-03-08T10:24:47;100538.34;;;6.34;100.00
56270;BME280;42176;43.240;27.880;2024-03-08T10:26:47;100534.47;;;5.42;100.00